createdAt,value
2017-09-19T00:00:49.342Z,9.77
2017-09-19T00:03:15.510Z,8.63
2017-09-19T00:05:42.430Z,9.63
2017-09-19T00:08:08.606Z,9.80
2017-09-19T00:10:34.795Z,10.03
2017-09-19T00:13:01.761Z,10.70
2017-09-19T00:15:28.668Z,9.73
2017-09-19T00:17:54.833Z,8.80
2017-09-19T00:20:21.772Z,10.80
2017-09-19T00:22:48.681Z,11.57
2017-09-19T00:25:14.843Z,9.80
2017-09-19T00:27:42.084Z,10.10
2017-09-19T00:30:09.736Z,10.27
2017-09-19T00:32:35.934Z,10.53
2017-09-19T00:35:02.100Z,9.60
2017-09-19T00:37:29.232Z,9.60
2017-09-19T00:39:55.412Z,10.27
2017-09-19T00:42:21.624Z,9.80
2017-09-19T00:44:48.538Z,9.80
2017-09-19T00:47:14.807Z,10.33
2017-09-19T00:49:40.993Z,9.80
2017-09-19T00:52:07.142Z,9.17
2017-09-19T00:54:34.064Z,9.63
2017-09-19T00:57:00.244Z,9.47
2017-09-19T00:59:26.443Z,10.10
2017-09-19T01:01:53.365Z,10.50
2017-09-19T01:04:19.551Z,9.97
2017-09-19T01:06:45.738Z,10.80
2017-09-19T01:09:11.907Z,10.60
2017-09-19T01:11:38.110Z,9.97
2017-09-19T01:14:05.027Z,11.00
2017-09-19T01:16:31.191Z,9.80
2017-09-19T01:18:57.372Z,10.67
2017-09-19T01:21:23.623Z,10.17
2017-09-19T01:23:50.555Z,10.97
2017-09-19T01:26:17.591Z,10.70
2017-09-19T01:28:43.753Z,10.17
2017-09-19T01:31:10.674Z,10.10
2017-09-19T01:33:36.913Z,9.87
2017-09-19T01:36:03.121Z,9.50
2017-09-19T01:38:29.323Z,10.03
2017-09-19T01:40:55.501Z,8.83
2017-09-19T01:43:21.684Z,9.70
2017-09-19T01:45:47.867Z,8.40
2017-09-19T01:48:14.848Z,9.17
2017-09-19T01:50:41.024Z,8.80
2017-09-19T01:53:07.175Z,9.57
2017-09-19T01:55:34.084Z,9.87
2017-09-19T01:58:00.239Z,10.50
2017-09-19T02:00:27.180Z,11.43
2017-09-19T02:02:54.082Z,10.40
2017-09-19T02:05:20.256Z,11.27
2017-09-19T02:07:47.192Z,8.60
2017-09-19T02:10:13.389Z,8.70
2017-09-19T02:12:39.566Z,8.97
2017-09-19T02:15:06.493Z,8.30
2017-09-19T02:17:32.638Z,9.77
2017-09-19T02:19:59.583Z,8.77
2017-09-19T02:22:27.487Z,9.23
2017-09-19T02:24:53.675Z,10.03
2017-09-19T02:27:20.613Z,8.70
2017-09-19T02:29:47.534Z,8.57
2017-09-19T02:32:13.949Z,9.03
2017-09-19T02:34:40.141Z,8.13
2017-09-19T02:37:06.299Z,9.10
2017-09-19T02:39:32.496Z,11.07
2017-09-19T02:41:58.691Z,13.13
2017-09-19T02:44:25.603Z,11.03
2017-09-19T02:46:51.799Z,11.27
2017-09-19T02:49:17.993Z,11.07
2017-09-19T02:51:44.141Z,10.77
2017-09-19T02:54:11.057Z,12.10
2017-09-19T02:56:37.220Z,11.30
2017-09-19T02:59:03.417Z,9.40
2017-09-19T03:01:29.587Z,10.97
2017-09-19T03:03:55.789Z,10.90
2017-09-19T03:06:22.738Z,11.13
2017-09-19T03:08:49.677Z,12.07
2017-09-19T03:11:17.566Z,10.90
2017-09-19T03:13:43.800Z,11.40
2017-09-19T03:16:09.982Z,10.47
2017-09-19T03:18:37.635Z,11.63
2017-09-19T03:21:03.872Z,11.20
2017-09-19T03:23:30.053Z,10.13
2017-09-19T03:25:56.234Z,9.63
2017-09-19T03:28:22.397Z,9.60
2017-09-19T03:30:48.573Z,9.17
2017-09-19T03:33:14.764Z,10.87
2017-09-19T03:35:40.972Z,10.90
2017-09-19T03:38:07.142Z,12.27
2017-09-19T03:40:33.310Z,11.67
2017-09-19T03:42:59.486Z,12.20
2017-09-19T03:45:25.673Z,11.60
2017-09-19T03:47:52.586Z,11.50
2017-09-19T03:50:18.762Z,12.10
2017-09-19T03:52:44.918Z,11.37
2017-09-19T03:55:11.095Z,10.40
2017-09-19T03:57:38.027Z,10.60
2017-09-19T04:00:04.202Z,10.73
2017-09-19T04:02:30.419Z,10.00
2017-09-19T04:04:56.592Z,10.60
2017-09-19T04:07:22.747Z,12.03
2017-09-19T04:09:48.961Z,10.70
2017-09-19T04:12:15.099Z,9.30
2017-09-19T04:14:42.940Z,9.27
2017-09-19T04:17:09.128Z,9.70
2017-09-19T04:19:35.305Z,9.03
2017-09-19T04:22:01.487Z,9.80
2017-09-19T04:24:27.664Z,8.57
2017-09-19T04:26:53.847Z,10.00
2017-09-19T04:29:20.066Z,10.40
2017-09-19T04:31:46.276Z,8.90
2017-09-19T04:34:13.187Z,10.43
2017-09-19T04:36:39.371Z,9.80
2017-09-19T04:39:05.591Z,8.53
2017-09-19T04:41:32.506Z,9.40
2017-09-19T04:43:58.729Z,9.43
2017-09-19T04:46:24.912Z,9.73
2017-09-19T04:48:51.116Z,8.70
2017-09-19T04:51:17.314Z,9.47
2017-09-19T04:53:43.508Z,9.53
2017-09-19T04:56:09.716Z,8.97
2017-09-19T04:58:35.911Z,10.30
2017-09-19T05:01:02.928Z,8.17
2017-09-19T05:03:29.103Z,9.00
2017-09-19T05:05:56.034Z,8.70
2017-09-19T05:08:22.984Z,9.60
2017-09-19T05:10:49.909Z,8.33
2017-09-19T05:13:16.095Z,7.37
2017-09-19T05:15:42.329Z,8.20
2017-09-19T05:18:08.489Z,8.50
2017-09-19T05:20:34.668Z,7.37
2017-09-19T05:23:00.875Z,7.80
2017-09-19T05:25:27.818Z,8.60
2017-09-19T05:27:54.759Z,8.83
2017-09-19T05:30:21.711Z,9.20
2017-09-19T05:32:48.648Z,8.27
2017-09-19T05:35:15.596Z,8.73
2017-09-19T05:37:42.521Z,8.17
2017-09-19T05:40:08.716Z,7.53
2017-09-19T05:42:34.874Z,8.23
2017-09-19T05:45:01.038Z,8.60
2017-09-19T05:47:27.206Z,8.70
2017-09-19T05:49:53.398Z,8.10
2017-09-19T05:52:19.567Z,9.10
2017-09-19T05:54:45.761Z,8.10
2017-09-19T05:57:11.938Z,8.40
2017-09-19T05:59:38.200Z,7.70
2017-09-19T06:02:04.392Z,6.83
2017-09-19T06:04:30.594Z,7.77
2017-09-19T06:06:56.790Z,6.90
2017-09-19T06:09:31.088Z,7.53
2017-09-19T06:11:58.060Z,8.07
2017-09-19T06:14:24.258Z,8.53
2017-09-19T06:16:50.508Z,7.17
2017-09-19T06:19:17.479Z,7.70
2017-09-19T06:21:43.681Z,8.30
2017-09-19T06:24:10.602Z,7.27
2017-09-19T06:26:36.800Z,7.13
2017-09-19T06:29:03.013Z,7.67
2017-09-19T06:31:29.220Z,6.67
2017-09-19T06:33:55.404Z,6.90
2017-09-19T06:36:21.594Z,7.07
2017-09-19T06:38:47.779Z,6.50
2017-09-19T06:41:14.686Z,5.97
2017-09-19T06:43:40.879Z,6.53
2017-09-19T06:46:07.050Z,6.07
2017-09-19T06:48:33.206Z,6.73
2017-09-19T06:50:59.393Z,5.90
2017-09-19T06:53:25.603Z,6.83
2017-09-19T06:55:51.766Z,7.10
2017-09-19T06:58:17.943Z,6.03
2017-09-19T07:00:51.284Z,5.50
2017-09-19T07:03:17.476Z,6.13
2017-09-19T07:05:43.691Z,5.90
2017-09-19T07:08:09.852Z,5.80
2017-09-19T07:10:36.033Z,6.23
2017-09-19T07:13:03.002Z,5.47
2017-09-19T07:15:29.566Z,5.03
2017-09-19T07:17:55.806Z,5.50
2017-09-19T07:20:22.028Z,5.97
2017-09-19T07:22:48.255Z,5.70
2017-09-19T07:25:14.541Z,6.30
2017-09-19T07:27:41.585Z,5.60
2017-09-19T07:30:07.849Z,5.90
2017-09-19T07:32:34.162Z,5.50
2017-09-19T07:35:00.483Z,6.10
2017-09-19T07:37:26.722Z,6.73
2017-09-19T07:39:52.959Z,6.20
2017-09-19T07:42:19.314Z,6.23
2017-09-19T07:44:45.573Z,6.50
2017-09-19T07:47:12.557Z,5.57
2017-09-19T07:49:38.785Z,6.00
2017-09-19T07:52:04.999Z,5.90
2017-09-19T07:54:31.946Z,6.70
2017-09-19T07:56:58.860Z,5.97
2017-09-19T07:59:25.107Z,5.70
2017-09-19T08:01:52.063Z,6.60
2017-09-19T08:04:19.672Z,7.00
2017-09-19T08:06:45.836Z,6.47
2017-09-19T08:09:12.066Z,6.20
2017-09-19T08:11:39.054Z,6.77
2017-09-19T08:14:05.374Z,6.90
2017-09-19T08:16:31.728Z,5.60
2017-09-19T08:18:57.942Z,6.43
2017-09-19T08:21:24.783Z,6.63
2017-09-19T08:23:51.006Z,7.10
2017-09-19T08:26:17.198Z,6.00
2017-09-19T08:28:43.404Z,6.47
2017-09-19T08:31:10.167Z,6.43
2017-09-19T08:33:36.336Z,7.50
2017-09-19T08:36:02.496Z,6.07
2017-09-19T08:38:28.758Z,6.03
2017-09-19T08:40:55.703Z,6.03
2017-09-19T08:43:22.604Z,6.80
2017-09-19T08:45:48.836Z,7.13
2017-09-19T08:48:15.007Z,5.80
2017-09-19T08:50:41.944Z,6.53
2017-09-19T08:53:08.133Z,7.17
2017-09-19T08:55:34.303Z,7.67
2017-09-19T08:58:00.530Z,7.00
2017-09-19T09:00:26.783Z,6.80
2017-09-19T09:02:53.724Z,8.53
2017-09-19T09:05:20.626Z,7.00
2017-09-19T09:07:46.807Z,6.60
2017-09-19T09:10:12.947Z,7.43
2017-09-19T09:12:39.141Z,6.97
2017-09-19T09:15:06.071Z,6.50
2017-09-19T09:17:32.244Z,7.23
2017-09-19T09:19:58.431Z,7.60
2017-09-19T09:22:25.344Z,7.63
2017-09-19T09:24:51.499Z,7.00
2017-09-19T09:27:17.679Z,6.73
2017-09-19T09:29:43.879Z,7.00
2017-09-19T09:32:10.872Z,7.47
2017-09-19T09:34:37.085Z,7.37
2017-09-19T09:37:03.311Z,7.43
2017-09-19T09:39:29.563Z,6.70
2017-09-19T09:41:55.746Z,7.00
2017-09-19T09:44:21.986Z,7.43
2017-09-19T09:46:48.146Z,7.10
2017-09-19T09:49:14.300Z,6.90
2017-09-19T09:51:40.488Z,7.30
2017-09-19T09:54:06.685Z,5.60
2017-09-19T09:56:32.912Z,6.60
2017-09-19T09:58:59.844Z,5.87
2017-09-19T10:01:26.776Z,5.53
2017-09-19T10:03:53.709Z,5.93
2017-09-19T10:06:20.015Z,5.30
2017-09-19T10:08:47.087Z,6.00
2017-09-19T10:11:13.247Z,6.60
2017-09-19T10:13:40.177Z,5.60
2017-09-19T10:16:06.404Z,4.93
2017-09-19T10:18:34.065Z,5.70
2017-09-19T10:21:01.757Z,5.07
2017-09-19T10:23:27.920Z,5.27
2017-09-19T10:25:54.066Z,5.00
2017-09-19T10:28:20.797Z,4.83
2017-09-19T10:30:46.951Z,4.13
2017-09-19T10:33:13.839Z,4.53
2017-09-19T10:35:40.000Z,4.57
2017-09-19T10:38:06.161Z,5.43
2017-09-19T10:40:33.063Z,5.60
2017-09-19T10:42:59.291Z,4.90
2017-09-19T10:45:25.447Z,4.73
2017-09-19T10:47:52.388Z,4.30
2017-09-19T10:50:25.707Z,5.10
2017-09-19T10:52:52.667Z,3.87
2017-09-19T10:55:18.835Z,3.70
2017-09-19T10:57:45.047Z,3.37
2017-09-19T11:00:11.228Z,3.23
2017-09-19T11:02:38.111Z,3.53
2017-09-19T11:05:04.281Z,3.90
2017-09-19T11:07:30.480Z,4.23
2017-09-19T11:09:56.627Z,2.93
2017-09-19T11:12:22.791Z,3.00
2017-09-19T11:14:49.717Z,3.27
2017-09-19T11:17:15.881Z,2.50
2017-09-19T11:19:42.076Z,2.47
2017-09-19T11:22:08.974Z,2.73
2017-09-19T11:24:35.142Z,1.97
2017-09-19T11:27:02.816Z,2.70
2017-09-19T11:29:30.530Z,2.13
2017-09-19T11:31:56.712Z,1.80
2017-09-19T11:34:23.628Z,1.70
2017-09-19T11:36:49.798Z,1.97
2017-09-19T11:39:15.994Z,2.20
2017-09-19T11:41:42.940Z,1.83
2017-09-19T11:44:09.145Z,2.57
2017-09-19T11:46:36.270Z,2.40
2017-09-19T11:49:03.250Z,2.83
2017-09-19T11:51:29.535Z,2.83
2017-09-19T11:53:55.733Z,2.87
2017-09-19T11:56:22.709Z,2.07
2017-09-19T11:58:48.933Z,2.30
2017-09-19T12:01:15.139Z,1.90
2017-09-19T12:03:42.090Z,1.80
2017-09-19T12:06:09.051Z,2.10
2017-09-19T12:08:35.257Z,2.87
2017-09-19T12:11:01.527Z,2.10
2017-09-19T12:13:27.680Z,1.70
2017-09-19T12:15:53.843Z,2.20
2017-09-19T12:18:20.006Z,2.10
2017-09-19T12:20:46.180Z,1.73
2017-09-19T12:23:12.344Z,2.80
2017-09-19T12:25:38.539Z,3.23
2017-09-19T12:28:04.712Z,3.30
2017-09-19T12:30:30.908Z,2.57
2017-09-19T12:32:57.822Z,3.13
2017-09-19T12:35:23.984Z,8.80
2017-09-19T12:37:50.918Z,5.50
2017-09-19T12:40:17.108Z,3.30
2017-09-19T12:42:43.272Z,10.60
2017-09-19T12:45:09.434Z,5.03
2017-09-19T12:47:35.618Z,2.93
2017-09-19T12:50:01.790Z,2.63
2017-09-19T12:52:27.975Z,2.70
2017-09-19T12:54:54.158Z,2.50
2017-09-19T12:57:20.346Z,2.50
2017-09-19T12:59:47.259Z,3.40
2017-09-19T13:02:13.430Z,2.57
2017-09-19T13:04:40.361Z,2.17
2017-09-19T13:07:06.547Z,2.00
2017-09-19T13:09:32.743Z,2.00
2017-09-19T13:11:58.899Z,1.90
2017-09-19T13:14:25.095Z,2.10
2017-09-19T13:16:51.284Z,1.83
2017-09-19T13:19:17.468Z,1.63
2017-09-19T13:21:43.731Z,1.20
2017-09-19T13:24:09.887Z,2.83
2017-09-19T13:26:36.811Z,1.83
2017-09-19T13:29:02.987Z,1.40
2017-09-19T13:31:42.373Z,1.13
2017-09-19T13:34:08.561Z,4.00
2017-09-19T13:36:34.743Z,1.87
2017-09-19T13:39:00.917Z,1.80
2017-09-19T13:41:27.105Z,1.60
2017-09-19T13:43:53.356Z,2.30
2017-09-19T13:46:20.313Z,2.00
2017-09-19T13:48:46.491Z,1.70
2017-09-19T13:51:12.834Z,1.83
2017-09-19T13:53:39.037Z,2.30
2017-09-19T13:56:05.237Z,1.47
2017-09-19T13:58:31.498Z,1.30
2017-09-19T14:00:57.683Z,1.37
2017-09-19T14:03:23.874Z,1.10
2017-09-19T14:05:50.076Z,1.53
2017-09-19T14:08:16.368Z,1.47
2017-09-19T14:10:42.563Z,1.50
2017-09-19T14:13:08.770Z,1.30
2017-09-19T14:15:34.980Z,1.47
2017-09-19T14:18:01.184Z,1.30
2017-09-19T14:20:27.371Z,1.33
2017-09-19T14:22:53.564Z,1.33
2017-09-19T14:25:19.758Z,1.40
2017-09-19T14:27:45.952Z,1.90
2017-09-19T14:30:12.122Z,1.30
2017-09-19T14:32:38.278Z,1.00
2017-09-19T14:35:04.475Z,1.50
2017-09-19T14:37:30.648Z,1.53
2017-09-19T14:39:56.842Z,1.50
2017-09-19T14:42:23.048Z,1.63
2017-09-19T14:44:49.971Z,1.60
2017-09-19T14:47:16.164Z,1.53
2017-09-19T14:49:42.368Z,1.43
2017-09-19T14:52:08.525Z,1.50
2017-09-19T14:54:34.712Z,2.30
2017-09-19T14:57:00.912Z,1.37
2017-09-19T14:59:27.078Z,1.30
2017-09-19T15:01:53.370Z,1.30
2017-09-19T15:04:20.360Z,1.40
2017-09-19T15:06:46.572Z,1.90
2017-09-19T15:09:12.848Z,2.53
2017-09-19T15:11:39.084Z,1.10
2017-09-19T15:14:05.315Z,1.43
2017-09-19T15:16:31.515Z,1.23
2017-09-19T15:18:57.742Z,1.50
2017-09-19T15:21:23.978Z,1.43
2017-09-19T15:23:50.210Z,1.20
2017-09-19T15:26:16.425Z,1.37
2017-09-19T15:28:42.588Z,1.93
2017-09-19T15:31:08.764Z,2.20
2017-09-19T15:33:34.963Z,1.63
2017-09-19T15:36:01.154Z,1.33
2017-09-19T15:38:27.416Z,1.30
2017-09-19T15:40:53.711Z,3.40
2017-09-19T15:43:19.962Z,1.00
2017-09-19T15:45:46.159Z,1.30
2017-09-19T15:48:12.382Z,1.00
2017-09-19T15:50:38.592Z,1.30
2017-09-19T15:53:04.800Z,0.90
2017-09-19T15:55:31.747Z,1.00
2017-09-19T15:57:58.766Z,1.60
2017-09-19T16:00:24.955Z,1.00
2017-09-19T16:02:51.152Z,0.90
2017-09-19T16:05:17.353Z,1.23
2017-09-19T16:07:43.689Z,1.10
2017-09-19T16:10:16.944Z,1.20
2017-09-19T16:12:43.139Z,1.30
2017-09-19T16:15:10.109Z,1.13
2017-09-19T16:17:36.314Z,1.20
2017-09-19T16:20:03.241Z,1.37
2017-09-19T16:22:29.472Z,1.30
2017-09-19T16:24:55.889Z,2.17
2017-09-19T16:27:22.039Z,1.53
2017-09-19T16:29:48.265Z,1.83
2017-09-19T16:32:15.169Z,1.50
2017-09-19T16:34:41.377Z,1.73
2017-09-19T16:37:07.587Z,1.70
2017-09-19T16:39:33.823Z,1.80
2017-09-19T16:42:00.004Z,1.87
2017-09-19T16:44:26.548Z,1.87
2017-09-19T16:46:52.811Z,1.97
2017-09-19T16:49:19.009Z,1.90
2017-09-19T16:51:45.271Z,2.10
2017-09-19T16:54:12.192Z,2.63
2017-09-19T16:56:39.147Z,3.13
2017-09-19T16:59:06.068Z,3.07
2017-09-19T17:01:33.727Z,5.50
2017-09-19T17:03:59.947Z,4.00
2017-09-19T17:06:26.185Z,4.93
2017-09-19T17:08:52.360Z,4.77
2017-09-19T17:11:18.570Z,2.60
2017-09-19T17:13:45.536Z,2.80
2017-09-19T17:16:11.713Z,2.77
2017-09-19T17:18:37.938Z,3.07
2017-09-19T17:21:04.162Z,3.20
2017-09-19T17:23:30.341Z,2.23
2017-09-19T17:25:56.558Z,3.20
2017-09-19T17:28:22.946Z,2.90
2017-09-19T17:30:49.157Z,2.83
2017-09-19T17:33:15.335Z,5.00
2017-09-19T17:35:42.316Z,4.60
2017-09-19T17:38:08.546Z,4.70
2017-09-19T17:40:34.774Z,3.70
2017-09-19T17:43:00.986Z,4.40
2017-09-19T17:45:27.175Z,3.80
2017-09-19T17:47:53.331Z,3.87
2017-09-19T17:50:19.526Z,4.90
2017-09-19T17:52:45.691Z,5.30
2017-09-19T17:55:12.703Z,4.57
2017-09-19T17:57:38.948Z,4.33
2017-09-19T18:00:05.167Z,4.07
2017-09-19T18:02:31.983Z,4.33
2017-09-19T18:04:58.215Z,4.13
2017-09-19T18:07:24.405Z,4.00
2017-09-19T18:09:50.573Z,4.30
2017-09-19T18:12:16.789Z,4.10
2017-09-19T18:14:42.994Z,3.80
2017-09-19T18:17:09.206Z,4.57
2017-09-19T18:19:36.168Z,3.40
2017-09-19T18:22:02.380Z,3.53
2017-09-19T18:24:29.341Z,5.97
2017-09-19T18:26:55.552Z,6.00
2017-09-19T18:29:22.609Z,7.50
2017-09-19T18:31:48.979Z,6.00
2017-09-19T18:34:15.164Z,5.40
2017-09-19T18:36:42.142Z,4.97
2017-09-19T18:39:08.407Z,5.10
2017-09-19T18:41:34.689Z,4.67
2017-09-19T18:44:00.956Z,4.30
2017-09-19T18:46:27.211Z,5.33
2017-09-19T18:48:54.981Z,4.90
2017-09-19T18:51:21.964Z,3.33
2017-09-19T18:53:48.143Z,2.77
2017-09-19T18:56:14.417Z,2.63
2017-09-19T18:58:40.651Z,3.00
2017-09-19T19:01:06.883Z,3.00
2017-09-19T19:03:33.720Z,3.13
2017-09-19T19:06:00.069Z,3.60
2017-09-19T19:08:26.247Z,5.00
2017-09-19T19:10:53.170Z,3.40
2017-09-19T19:13:19.387Z,4.13
2017-09-19T19:15:45.543Z,4.13
2017-09-19T19:18:11.726Z,6.07
2017-09-19T19:20:37.938Z,4.97
2017-09-19T19:23:04.152Z,4.80
2017-09-19T19:25:30.357Z,5.63
2017-09-19T19:27:56.595Z,5.43
2017-09-19T19:30:23.650Z,5.10
2017-09-19T19:32:49.877Z,5.43
2017-09-19T19:35:16.289Z,6.23
2017-09-19T19:37:42.495Z,6.03
2017-09-19T19:40:08.665Z,5.77
2017-09-19T19:42:35.576Z,5.73
2017-09-19T19:45:01.782Z,5.67
2017-09-19T19:47:27.980Z,5.40
2017-09-19T19:49:54.178Z,6.30
2017-09-19T19:52:21.843Z,6.20
2017-09-19T19:54:48.050Z,5.67
2017-09-19T19:57:14.251Z,5.90
2017-09-19T19:59:40.454Z,6.03
2017-09-19T20:02:06.714Z,5.70
2017-09-19T20:04:32.906Z,6.23
2017-09-19T20:06:59.133Z,6.40
2017-09-19T20:09:25.341Z,6.07
2017-09-19T20:11:51.529Z,6.43
2017-09-19T20:14:17.878Z,5.70
2017-09-19T20:16:44.054Z,5.30
2017-09-19T20:19:10.239Z,6.20
2017-09-19T20:21:36.592Z,4.97
2017-09-19T20:24:02.870Z,5.40
2017-09-19T20:26:29.313Z,6.50
2017-09-19T20:28:55.538Z,6.57
2017-09-19T20:31:21.840Z,5.80
2017-09-19T20:33:48.064Z,5.70
2017-09-19T20:36:14.255Z,7.03
2017-09-19T20:38:40.495Z,7.07
2017-09-19T20:41:06.766Z,6.60
2017-09-19T20:43:32.953Z,7.57
2017-09-19T20:45:59.226Z,7.43
2017-09-19T20:48:25.415Z,6.17
2017-09-19T20:50:51.599Z,6.57
2017-09-19T20:53:17.855Z,6.97
2017-09-19T20:55:44.058Z,6.73
2017-09-19T20:58:10.293Z,6.97
2017-09-19T21:00:36.446Z,7.60
2017-09-19T21:03:02.783Z,6.67
2017-09-19T21:05:35.830Z,7.80
2017-09-19T21:08:08.301Z,7.53
2017-09-19T21:10:40.718Z,6.57
2017-09-19T21:13:13.256Z,5.60
2017-09-19T21:15:45.708Z,7.60
2017-09-19T21:18:18.140Z,8.37
2017-09-19T21:20:44.377Z,7.80
2017-09-19T21:23:10.651Z,8.40
2017-09-19T21:25:36.921Z,7.57
2017-09-19T21:28:03.205Z,7.50
2017-09-19T21:30:29.387Z,8.30
2017-09-19T21:32:55.591Z,8.60
2017-09-19T21:35:22.403Z,8.40
2017-09-19T21:37:48.620Z,8.00
2017-09-19T21:40:14.801Z,7.50
2017-09-19T21:42:41.261Z,8.07
2017-09-19T21:45:08.256Z,7.63
2017-09-19T21:47:35.527Z,8.70
2017-09-19T21:50:01.756Z,7.93
2017-09-19T21:52:27.980Z,7.60
2017-09-19T21:55:01.127Z,7.93
2017-09-19T21:57:27.342Z,7.87
2017-09-19T21:59:54.237Z,8.80
2017-09-19T22:02:20.415Z,8.40
2017-09-19T22:04:47.355Z,8.10
2017-09-19T22:07:13.567Z,7.77
2017-09-19T22:09:39.759Z,8.23
2017-09-19T22:12:05.938Z,9.70
2017-09-19T22:14:32.867Z,8.63
2017-09-19T22:16:59.059Z,8.00
2017-09-19T22:19:25.255Z,8.43
2017-09-19T22:21:51.457Z,8.70
2017-09-19T22:24:17.633Z,8.90
2017-09-19T22:26:43.815Z,8.70
2017-09-19T22:29:09.975Z,7.73
2017-09-19T22:31:36.167Z,9.23
2017-09-19T22:34:02.353Z,9.00
2017-09-19T22:36:28.563Z,9.23
2017-09-19T22:38:54.767Z,8.73
2017-09-19T22:41:21.734Z,9.23
2017-09-19T22:43:47.940Z,8.90
2017-09-19T22:46:14.864Z,8.37
2017-09-19T22:48:41.095Z,8.43
2017-09-19T22:51:07.284Z,9.50
2017-09-19T22:53:33.472Z,10.03
2017-09-19T22:56:00.409Z,9.90
2017-09-19T22:58:26.580Z,10.70
2017-09-19T23:00:52.804Z,10.00
2017-09-19T23:03:19.008Z,9.80
2017-09-19T23:05:45.946Z,10.37
2017-09-19T23:08:12.910Z,10.43
2017-09-19T23:10:39.106Z,10.10
2017-09-19T23:13:05.268Z,10.30
2017-09-19T23:15:31.482Z,10.87
2017-09-19T23:17:58.538Z,10.83
2017-09-19T23:20:24.749Z,9.57
2017-09-19T23:22:51.688Z,10.60
2017-09-19T23:25:17.934Z,9.50
2017-09-19T23:27:44.903Z,10.23
2017-09-19T23:30:11.123Z,11.13
2017-09-19T23:32:37.342Z,11.90
2017-09-19T23:35:04.273Z,10.07
2017-09-19T23:37:31.253Z,9.43
2017-09-19T23:39:57.424Z,11.10
2017-09-19T23:42:23.587Z,10.53
2017-09-19T23:44:50.512Z,9.57
2017-09-19T23:47:17.424Z,10.70
2017-09-19T23:49:43.604Z,10.13
2017-09-19T23:52:10.520Z,11.20
2017-09-19T23:54:36.690Z,11.30
2017-09-19T23:57:02.896Z,9.33
2017-09-19T23:59:29.787Z,11.23
